• Join FlightAware (Why Join?)
  • Login
  • US Flag 
02:32AM EST


 

Airport Tracker/Info


-or-


 

Live Flight TrackerFlight Track Log ✈ N74472 ✈ 20-Apr-2013 ✈ KIWS - KEFD

Flight Track Log - Related Links

Times and Time Zones

All times are in EDT time to prevent confusion due to time zone crossing. See the N74472 flight status page for this flight to view local times or setup timezone preferences in your user account.

Time Position Orientation Groundspeed Altitude Reporting Facility
EDT Latitude Longitude Course Direction KTS MPH feet Rate Location/Type
08:13AM 29.8064 -95.6681 127° Southeast 81 93 700  Level Houston Center
08:14AM 29.7964 -95.6525 127° Southeast 82 94 1,600 900 Climbing Houston Center
08:15AM 29.7919 -95.6281 102° East 81 93 2,500 660 Climbing Houston Center
08:16AM 29.7694 -95.6075 142° Southeast 98 113 3,100 240 Climbing Houston Center
08:17AM 29.7469 -95.5822 136° Southeast 112 129 3,100  Level Houston Center
08:18AM 29.7206 -95.5556 139° Southeast 126 145 3,100  Level Houston Center
08:19AM 29.6928 -95.5275 139° Southeast 118 136 3,100  Level Houston Center
08:20AM 29.6697 -95.5039 138° Southeast 118 136 3,100  Level Houston Center
08:21AM 29.6444 -95.4803 141° Southeast 118 136 3,100  Level Houston Center
08:22AM 29.6189 -95.4522 136° Southeast 120 138 3,100  Level Houston Center
08:23AM 29.5936 -95.4286 141° Southeast 119 137 3,100  Level Houston Center
08:24AM 29.5703 -95.4028 136° Southeast 118 136 3,100  Level Houston Center
08:25AM 29.5425 -95.3747 139° Southeast 118 136 3,100 -240 Level Houston Center
08:26AM 29.5267 -95.3431 120° Southeast 125 144 2,700 -420 Descending Houston Center
08:27AM 29.5186 -95.2983 102° East 116 133 2,300 -240 Descending Houston Center
08:28AM 29.5158 -95.2703 96° East 114 131 2,300  Level Houston Center
08:29AM 29.5133 -95.2367 95° East 108 124 2,300  Level Houston Center
08:30AM 29.5225 -95.1978 75° East 106 122 2,300 -480 Level Houston Center
08:31AM 29.5408 -95.1697 53° Northeast 107 123 1,400 -840 Descending Houston Center
08:32AM 29.5714 -95.1647 North 92 106 600 -600 Descending Houston Center
08:33AM 29.5925 -95.1639 North 92 106 200 -420 Descending Houston Center